sensor_id;sensor_type;location;lat;lon;timestamp;P1;durP1;ratioP1;P2;durP2;ratioP2
10387;SDS011;5240;51.128;4.566;2024-03-06T00:02:11;14.90;;;11.20;;
10387;SDS011;5240;51.128;4.566;2024-03-06T00:04:39;13.95;;;10.43;;
10387;SDS011;5240;51.128;4.566;2024-03-06T00:07:06;14.05;;;10.25;;
10387;SDS011;5240;51.128;4.566;2024-03-06T00:09:33;13.18;;;10.77;;
10387;SDS011;5240;51.128;4.566;2024-03-06T00:12:01;12.27;;;10.95;;
10387;SDS011;5240;51.128;4.566;2024-03-06T00:14:30;13.13;;;11.32;;
10387;SDS011;5240;51.128;4.566;2024-03-06T00:16:58;15.07;;;10.98;;
10387;SDS011;5240;51.128;4.566;2024-03-06T00:19:25;13.93;;;10.88;;
10387;SDS011;5240;51.128;4.566;2024-03-06T00:21:52;12.10;;;10.88;;
10387;SDS011;5240;51.128;4.566;2024-03-06T00:24:20;13.82;;;11.18;;
10387;SDS011;5240;51.128;4.566;2024-03-06T00:26:48;14.77;;;11.23;;
10387;SDS011;5240;51.128;4.566;2024-03-06T00:29:15;13.90;;;11.68;;
10387;SDS011;5240;51.128;4.566;2024-03-06T00:31:44;12.85;;;11.10;;
10387;SDS011;5240;51.128;4.566;2024-03-06T00:34:12;13.68;;;11.57;;
10387;SDS011;5240;51.128;4.566;2024-03-06T00:36:40;12.57;;;11.27;;
10387;SDS011;5240;51.128;4.566;2024-03-06T00:39:07;13.82;;;10.73;;
10387;SDS011;5240;51.128;4.566;2024-03-06T00:41:34;13.38;;;11.15;;
10387;SDS011;5240;51.128;4.566;2024-03-06T00:44:02;15.98;;;11.95;;
10387;SDS011;5240;51.128;4.566;2024-03-06T00:46:29;15.60;;;11.35;;
10387;SDS011;5240;51.128;4.566;2024-03-06T00:48:58;15.88;;;12.27;;
10387;SDS011;5240;51.128;4.566;2024-03-06T00:51:25;14.77;;;11.23;;
10387;SDS011;5240;51.128;4.566;2024-03-06T00:53:52;13.20;;;11.82;;
10387;SDS011;5240;51.128;4.566;2024-03-06T00:56:20;12.95;;;11.30;;
10387;SDS011;5240;51.128;4.566;2024-03-06T00:58:47;15.75;;;11.88;;
10387;SDS011;5240;51.128;4.566;2024-03-06T01:01:15;13.10;;;11.05;;
10387;SDS011;5240;51.128;4.566;2024-03-06T01:03:42;15.95;;;11.18;;
10387;SDS011;5240;51.128;4.566;2024-03-06T01:06:11;13.50;;;11.85;;
10387;SDS011;5240;51.128;4.566;2024-03-06T01:08:39;14.73;;;11.60;;
10387;SDS011;5240;51.128;4.566;2024-03-06T01:11:06;16.38;;;11.35;;
10387;SDS011;5240;51.128;4.566;2024-03-06T01:13:33;13.05;;;11.40;;
10387;SDS011;5240;51.128;4.566;2024-03-06T01:16:00;15.88;;;11.50;;
10387;SDS011;5240;51.128;4.566;2024-03-06T01:18:27;12.88;;;11.02;;
10387;SDS011;5240;51.128;4.566;2024-03-06T01:20:55;16.65;;;11.52;;
10387;SDS011;5240;51.128;4.566;2024-03-06T01:23:23;16.63;;;11.85;;
10387;SDS011;5240;51.128;4.566;2024-03-06T01:25:51;18.75;;;11.90;;
10387;SDS011;5240;51.128;4.566;2024-03-06T01:28:18;18.25;;;12.82;;
10387;SDS011;5240;51.128;4.566;2024-03-06T01:30:45;14.80;;;11.80;;
10387;SDS011;5240;51.128;4.566;2024-03-06T01:33:12;15.15;;;11.82;;
10387;SDS011;5240;51.128;4.566;2024-03-06T01:35:40;15.35;;;11.88;;
10387;SDS011;5240;51.128;4.566;2024-03-06T01:38:07;14.43;;;11.75;;
10387;SDS011;5240;51.128;4.566;2024-03-06T01:40:36;13.40;;;11.43;;
10387;SDS011;5240;51.128;4.566;2024-03-06T01:43:04;14.68;;;11.43;;
10387;SDS011;5240;51.128;4.566;2024-03-06T01:45:31;16.65;;;11.45;;
10387;SDS011;5240;51.128;4.566;2024-03-06T01:47:58;14.60;;;11.30;;
10387;SDS011;5240;51.128;4.566;2024-03-06T01:50:26;15.23;;;12.35;;
10387;SDS011;5240;51.128;4.566;2024-03-06T01:52:53;13.80;;;11.63;;
10387;SDS011;5240;51.128;4.566;2024-03-06T01:55:20;13.40;;;11.70;;
10387;SDS011;5240;51.128;4.566;2024-03-06T01:57:49;15.30;;;12.13;;
10387;SDS011;5240;51.128;4.566;2024-03-06T02:00:17;14.88;;;11.90;;
10387;SDS011;5240;51.128;4.566;2024-03-06T02:02:44;15.18;;;11.43;;
10387;SDS011;5240;51.128;4.566;2024-03-06T02:05:11;13.45;;;12.07;;
10387;SDS011;5240;51.128;4.566;2024-03-06T02:07:39;13.98;;;11.70;;
10387;SDS011;5240;51.128;4.566;2024-03-06T02:10:09;13.45;;;11.93;;
10387;SDS011;5240;51.128;4.566;2024-03-06T02:12:37;13.10;;;11.65;;
10387;SDS011;5240;51.128;4.566;2024-03-06T02:15:06;13.70;;;12.00;;
10387;SDS011;5240;51.128;4.566;2024-03-06T02:17:34;14.55;;;11.00;;
10387;SDS011;5240;51.128;4.566;2024-03-06T02:20:01;15.60;;;11.65;;
10387;SDS011;5240;51.128;4.566;2024-03-06T02:22:32;15.55;;;11.50;;
10387;SDS011;5240;51.128;4.566;2024-03-06T02:24:59;13.43;;;11.82;;
10387;SDS011;5240;51.128;4.566;2024-03-06T02:27:26;16.65;;;12.52;;
10387;SDS011;5240;51.128;4.566;2024-03-06T02:29:54;14.30;;;11.68;;
10387;SDS011;5240;51.128;4.566;2024-03-06T02:32:21;12.85;;;11.45;;
10387;SDS011;5240;51.128;4.566;2024-03-06T02:34:49;18.58;;;11.73;;
10387;SDS011;5240;51.128;4.566;2024-03-06T02:37:16;13.45;;;11.00;;
10387;SDS011;5240;51.128;4.566;2024-03-06T02:39:45;14.00;;;11.63;;
10387;SDS011;5240;51.128;4.566;2024-03-06T02:42:12;15.23;;;11.73;;
10387;SDS011;5240;51.128;4.566;2024-03-06T02:44:39;13.82;;;11.35;;
10387;SDS011;5240;51.128;4.566;2024-03-06T02:47:07;13.68;;;11.38;;
10387;SDS011;5240;51.128;4.566;2024-03-06T02:49:34;12.55;;;11.25;;
10387;SDS011;5240;51.128;4.566;2024-03-06T02:52:01;14.80;;;11.35;;
10387;SDS011;5240;51.128;4.566;2024-03-06T02:54:29;12.65;;;10.70;;
10387;SDS011;5240;51.128;4.566;2024-03-06T02:56:57;13.25;;;11.20;;
10387;SDS011;5240;51.128;4.566;2024-03-06T02:59:25;14.23;;;11.48;;
10387;SDS011;5240;51.128;4.566;2024-03-06T03:01:52;15.05;;;11.35;;
10387;SDS011;5240;51.128;4.566;2024-03-06T03:04:19;13.77;;;11.20;;
10387;SDS011;5240;51.128;4.566;2024-03-06T03:06:46;16.48;;;11.60;;
10387;SDS011;5240;51.128;4.566;2024-03-06T03:09:14;14.10;;;11.55;;
10387;SDS011;5240;51.128;4.566;2024-03-06T03:11:41;13.48;;;11.88;;
10387;SDS011;5240;51.128;4.566;2024-03-06T03:14:11;13.95;;;11.45;;
10387;SDS011;5240;51.128;4.566;2024-03-06T03:16:38;15.40;;;11.30;;
10387;SDS011;5240;51.128;4.566;2024-03-06T03:19:05;14.00;;;11.65;;
10387;SDS011;5240;51.128;4.566;2024-03-06T03:21:33;13.02;;;11.05;;
10387;SDS011;5240;51.128;4.566;2024-03-06T03:24:00;13.77;;;11.02;;
10387;SDS011;5240;51.128;4.566;2024-03-06T03:26:28;12.77;;;10.88;;
10387;SDS011;5240;51.128;4.566;2024-03-06T03:28:55;14.27;;;11.15;;
10387;SDS011;5240;51.128;4.566;2024-03-06T03:31:24;13.60;;;11.38;;
10387;SDS011;5240;51.128;4.566;2024-03-06T03:33:51;13.60;;;11.90;;
10387;SDS011;5240;51.128;4.566;2024-03-06T03:36:18;12.65;;;11.35;;
10387;SDS011;5240;51.128;4.566;2024-03-06T03:38:45;15.55;;;11.35;;
10387;SDS011;5240;51.128;4.566;2024-03-06T03:41:13;14.65;;;12.40;;
10387;SDS011;5240;51.128;4.566;2024-03-06T03:43:41;15.13;;;11.93;;
10387;SDS011;5240;51.128;4.566;2024-03-06T03:46:09;13.98;;;11.77;;
10387;SDS011;5240;51.128;4.566;2024-03-06T03:48:37;15.63;;;12.55;;
10387;SDS011;5240;51.128;4.566;2024-03-06T03:51:05;13.73;;;12.30;;
10387;SDS011;5240;51.128;4.566;2024-03-06T03:53:32;17.88;;;14.13;;
10387;SDS011;5240;51.128;4.566;2024-03-06T03:55:59;16.35;;;13.55;;
10387;SDS011;5240;51.128;4.566;2024-03-06T03:58:28;15.30;;;12.43;;
10387;SDS011;5240;51.128;4.566;2024-03-06T04:00:55;17.42;;;12.70;;
10387;SDS011;5240;51.128;4.566;2024-03-06T04:03:23;13.48;;;12.07;;
10387;SDS011;5240;51.128;4.566;2024-03-06T04:05:51;13.75;;;12.10;;
10387;SDS011;5240;51.128;4.566;2024-03-06T04:08:19;14.77;;;12.50;;
10387;SDS011;5240;51.128;4.566;2024-03-06T04:10:46;14.45;;;12.80;;
10387;SDS011;5240;51.128;4.566;2024-03-06T04:13:14;15.57;;;13.25;;
10387;SDS011;5240;51.128;4.566;2024-03-06T04:15:44;16.98;;;12.20;;
10387;SDS011;5240;51.128;4.566;2024-03-06T04:18:11;14.27;;;12.77;;
10387;SDS011;5240;51.128;4.566;2024-03-06T04:20:39;15.82;;;13.15;;
10387;SDS011;5240;51.128;4.566;2024-03-06T04:23:07;14.50;;;12.70;;
10387;SDS011;5240;51.128;4.566;2024-03-06T04:25:35;14.60;;;12.40;;
10387;SDS011;5240;51.128;4.566;2024-03-06T04:28:01;15.57;;;13.05;;
10387;SDS011;5240;51.128;4.566;2024-03-06T04:30:28;16.88;;;13.77;;
10387;SDS011;5240;51.128;4.566;2024-03-06T04:32:55;14.75;;;13.25;;
10387;SDS011;5240;51.128;4.566;2024-03-06T04:35:23;18.58;;;15.48;;
10387;SDS011;5240;51.128;4.566;2024-03-06T04:37:50;16.00;;;13.18;;
10387;SDS011;5240;51.128;4.566;2024-03-06T04:40:19;15.52;;;12.60;;
10387;SDS011;5240;51.128;4.566;2024-03-06T04:42:47;14.85;;;13.07;;
10387;SDS011;5240;51.128;4.566;2024-03-06T04:45:15;14.35;;;12.82;;
10387;SDS011;5240;51.128;4.566;2024-03-06T04:47:41;14.18;;;12.38;;
10387;SDS011;5240;51.128;4.566;2024-03-06T04:50:09;14.10;;;12.70;;
10387;SDS011;5240;51.128;4.566;2024-03-06T04:52:36;15.30;;;12.93;;
10387;SDS011;5240;51.128;4.566;2024-03-06T04:55:04;14.52;;;12.60;;
10387;SDS011;5240;51.128;4.566;2024-03-06T04:57:34;15.40;;;13.63;;
10387;SDS011;5240;51.128;4.566;2024-03-06T05:00:01;17.30;;;14.15;;
10387;SDS011;5240;51.128;4.566;2024-03-06T05:02:30;17.35;;;13.88;;
10387;SDS011;5240;51.128;4.566;2024-03-06T05:05:00;16.58;;;13.07;;
10387;SDS011;5240;51.128;4.566;2024-03-06T05:07:28;17.65;;;14.30;;
10387;SDS011;5240;51.128;4.566;2024-03-06T05:09:55;15.52;;;13.63;;
10387;SDS011;5240;51.128;4.566;2024-03-06T05:12:23;16.67;;;14.77;;
10387;SDS011;5240;51.128;4.566;2024-03-06T05:14:52;14.75;;;12.82;;
10387;SDS011;5240;51.128;4.566;2024-03-06T05:17:19;16.60;;;14.38;;
10387;SDS011;5240;51.128;4.566;2024-03-06T05:19:46;15.57;;;13.88;;
10387;SDS011;5240;51.128;4.566;2024-03-06T05:22:14;18.35;;;14.52;;
10387;SDS011;5240;51.128;4.566;2024-03-06T05:24:41;18.63;;;15.20;;
10387;SDS011;5240;51.128;4.566;2024-03-06T05:27:09;19.35;;;15.50;;
10387;SDS011;5240;51.128;4.566;2024-03-06T05:29:38;18.55;;;15.77;;
10387;SDS011;5240;51.128;4.566;2024-03-06T05:32:07;24.92;;;16.20;;
10387;SDS011;5240;51.128;4.566;2024-03-06T05:34:34;18.02;;;14.95;;
10387;SDS011;5240;51.128;4.566;2024-03-06T05:37:01;18.05;;;15.43;;
10387;SDS011;5240;51.128;4.566;2024-03-06T05:39:30;20.60;;;15.70;;
10387;SDS011;5240;51.128;4.566;2024-03-06T05:41:59;18.48;;;16.30;;
10387;SDS011;5240;51.128;4.566;2024-03-06T05:44:28;18.80;;;15.52;;
10387;SDS011;5240;51.128;4.566;2024-03-06T05:46:55;16.38;;;14.68;;
10387;SDS011;5240;51.128;4.566;2024-03-06T05:49:25;18.42;;;15.90;;
10387;SDS011;5240;51.128;4.566;2024-03-06T05:51:52;19.35;;;15.00;;
10387;SDS011;5240;51.128;4.566;2024-03-06T05:54:20;18.65;;;14.50;;
10387;SDS011;5240;51.128;4.566;2024-03-06T05:56:47;18.65;;;15.63;;
10387;SDS011;5240;51.128;4.566;2024-03-06T05:59:16;20.42;;;14.95;;
10387;SDS011;5240;51.128;4.566;2024-03-06T06:01:43;19.55;;;14.43;;
10387;SDS011;5240;51.128;4.566;2024-03-06T06:04:11;18.58;;;15.10;;
10387;SDS011;5240;51.128;4.566;2024-03-06T06:06:40;18.63;;;14.95;;
10387;SDS011;5240;51.128;4.566;2024-03-06T06:09:08;22.73;;;16.33;;
10387;SDS011;5240;51.128;4.566;2024-03-06T06:11:40;18.50;;;14.70;;
10387;SDS011;5240;51.128;4.566;2024-03-06T06:14:08;19.92;;;16.00;;
10387;SDS011;5240;51.128;4.566;2024-03-06T06:16:36;18.15;;;15.43;;
10387;SDS011;5240;51.128;4.566;2024-03-06T06:19:03;19.17;;;15.07;;
10387;SDS011;5240;51.128;4.566;2024-03-06T06:21:30;18.92;;;14.93;;
10387;SDS011;5240;51.128;4.566;2024-03-06T06:23:59;17.27;;;14.68;;
10387;SDS011;5240;51.128;4.566;2024-03-06T06:26:27;19.58;;;15.70;;
10387;SDS011;5240;51.128;4.566;2024-03-06T06:28:54;17.73;;;14.88;;
10387;SDS011;5240;51.128;4.566;2024-03-06T06:31:21;18.52;;;15.00;;
10387;SDS011;5240;51.128;4.566;2024-03-06T06:33:50;18.00;;;14.82;;
10387;SDS011;5240;51.128;4.566;2024-03-06T06:36:17;18.98;;;14.98;;
10387;SDS011;5240;51.128;4.566;2024-03-06T06:38:44;19.90;;;15.20;;
10387;SDS011;5240;51.128;4.566;2024-03-06T06:41:13;22.23;;;15.45;;
10387;SDS011;5240;51.128;4.566;2024-03-06T06:43:40;19.33;;;14.90;;
10387;SDS011;5240;51.128;4.566;2024-03-06T06:46:08;20.85;;;16.52;;
10387;SDS011;5240;51.128;4.566;2024-03-06T06:48:35;19.33;;;14.80;;
10387;SDS011;5240;51.128;4.566;2024-03-06T06:51:02;16.95;;;14.38;;
10387;SDS011;5240;51.128;4.566;2024-03-06T06:53:30;19.48;;;15.63;;
10387;SDS011;5240;51.128;4.566;2024-03-06T06:55:57;20.30;;;15.82;;
10387;SDS011;5240;51.128;4.566;2024-03-06T06:58:26;19.38;;;15.55;;
10387;SDS011;5240;51.128;4.566;2024-03-06T07:00:53;21.60;;;15.60;;
10387;SDS011;5240;51.128;4.566;2024-03-06T07:03:20;22.40;;;15.05;;
10387;SDS011;5240;51.128;4.566;2024-03-06T07:05:51;19.60;;;15.30;;
10387;SDS011;5240;51.128;4.566;2024-03-06T07:08:19;22.02;;;15.68;;
10387;SDS011;5240;51.128;4.566;2024-03-06T07:10:46;17.90;;;13.93;;
10387;SDS011;5240;51.128;4.566;2024-03-06T07:13:13;19.00;;;14.65;;
10387;SDS011;5240;51.128;4.566;2024-03-06T07:15:45;19.98;;;14.45;;
10387;SDS011;5240;51.128;4.566;2024-03-06T07:18:13;22.08;;;14.40;;
10387;SDS011;5240;51.128;4.566;2024-03-06T07:20:40;25.70;;;15.18;;
10387;SDS011;5240;51.128;4.566;2024-03-06T07:23:07;18.88;;;13.95;;
10387;SDS011;5240;51.128;4.566;2024-03-06T07:25:38;16.20;;;13.57;;
10387;SDS011;5240;51.128;4.566;2024-03-06T07:28:08;15.95;;;13.05;;
10387;SDS011;5240;51.128;4.566;2024-03-06T07:30:41;18.63;;;13.50;;
10387;SDS011;5240;51.128;4.566;2024-03-06T07:36:08;20.42;;;13.13;;
10387;SDS011;5240;51.128;4.566;2024-03-06T07:38:36;14.38;;;12.68;;
10387;SDS011;5240;51.128;4.566;2024-03-06T07:41:05;14.85;;;12.65;;
10387;SDS011;5240;51.128;4.566;2024-03-06T07:43:46;18.33;;;12.65;;
10387;SDS011;5240;51.128;4.566;2024-03-06T07:46:14;16.63;;;12.45;;
10387;SDS011;5240;51.128;4.566;2024-03-06T07:48:42;17.00;;;12.88;;
10387;SDS011;5240;51.128;4.566;2024-03-06T07:51:11;19.08;;;12.57;;
10387;SDS011;5240;51.128;4.566;2024-03-06T07:53:39;15.20;;;12.18;;
10387;SDS011;5240;51.128;4.566;2024-03-06T07:56:07;16.45;;;13.13;;
10387;SDS011;5240;51.128;4.566;2024-03-06T07:58:37;15.38;;;11.55;;
10387;SDS011;5240;51.128;4.566;2024-03-06T08:01:05;12.50;;;11.20;;
10387;SDS011;5240;51.128;4.566;2024-03-06T08:03:32;16.08;;;11.55;;
10387;SDS011;5240;51.128;4.566;2024-03-06T08:06:00;11.93;;;10.05;;
10387;SDS011;5240;51.128;4.566;2024-03-06T08:08:33;11.85;;;10.20;;
10387;SDS011;5240;51.128;4.566;2024-03-06T08:11:00;11.23;;;9.77;;
10387;SDS011;5240;51.128;4.566;2024-03-06T08:13:27;13.77;;;9.68;;
10387;SDS011;5240;51.128;4.566;2024-03-06T08:15:55;12.77;;;9.52;;
10387;SDS011;5240;51.128;4.566;2024-03-06T08:18:22;11.02;;;9.40;;
10387;SDS011;5240;51.128;4.566;2024-03-06T08:20:50;10.18;;;8.88;;
10387;SDS011;5240;51.128;4.566;2024-03-06T08:23:27;9.43;;;8.43;;
10387;SDS011;5240;51.128;4.566;2024-03-06T08:25:57;9.05;;;8.05;;
10387;SDS011;5240;51.128;4.566;2024-03-06T08:28:26;9.20;;;7.93;;
10387;SDS011;5240;51.128;4.566;2024-03-06T08:30:54;10.05;;;7.85;;
10387;SDS011;5240;51.128;4.566;2024-03-06T08:33:21;9.45;;;7.53;;
10387;SDS011;5240;51.128;4.566;2024-03-06T08:35:50;8.20;;;7.40;;
10387;SDS011;5240;51.128;4.566;2024-03-06T08:38:17;9.73;;;7.55;;
10387;SDS011;5240;51.128;4.566;2024-03-06T08:40:45;8.05;;;7.15;;
10387;SDS011;5240;51.128;4.566;2024-03-06T08:43:14;9.98;;;7.40;;
10387;SDS011;5240;51.128;4.566;2024-03-06T08:45:41;8.65;;;7.65;;
10387;SDS011;5240;51.128;4.566;2024-03-06T08:48:09;9.52;;;7.82;;
10387;SDS011;5240;51.128;4.566;2024-03-06T08:50:36;8.48;;;7.57;;
10387;SDS011;5240;51.128;4.566;2024-03-06T08:53:04;10.20;;;8.10;;
10387;SDS011;5240;51.128;4.566;2024-03-06T08:55:31;9.40;;;7.63;;
10387;SDS011;5240;51.128;4.566;2024-03-06T08:57:59;9.32;;;7.30;;
10387;SDS011;5240;51.128;4.566;2024-03-06T09:00:29;12.75;;;7.00;;
10387;SDS011;5240;51.128;4.566;2024-03-06T09:02:57;8.80;;;7.40;;
10387;SDS011;5240;51.128;4.566;2024-03-06T09:05:27;8.52;;;7.57;;
10387;SDS011;5240;51.128;4.566;2024-03-06T09:07:54;10.52;;;6.95;;
10387;SDS011;5240;51.128;4.566;2024-03-06T09:12:58;7.95;;;6.95;;
10387;SDS011;5240;51.128;4.566;2024-03-06T09:15:26;9.05;;;7.32;;
10387;SDS011;5240;51.128;4.566;2024-03-06T09:17:55;8.45;;;7.00;;
10387;SDS011;5240;51.128;4.566;2024-03-06T09:20:22;9.65;;;7.22;;
10387;SDS011;5240;51.128;4.566;2024-03-06T09:25:27;8.95;;;8.05;;
10387;SDS011;5240;51.128;4.566;2024-03-06T09:27:54;10.63;;;8.00;;
10387;SDS011;5240;51.128;4.566;2024-03-06T09:30:35;9.63;;;8.63;;
10387;SDS011;5240;51.128;4.566;2024-03-06T09:36:00;10.05;;;8.43;;
10387;SDS011;5240;51.128;4.566;2024-03-06T09:38:28;9.05;;;8.13;;
10387;SDS011;5240;51.128;4.566;2024-03-06T09:41:09;11.23;;;8.43;;
10387;SDS011;5240;51.128;4.566;2024-03-06T09:43:37;13.27;;;9.13;;
10387;SDS011;5240;51.128;4.566;2024-03-06T09:46:07;10.35;;;8.20;;
10387;SDS011;5240;51.128;4.566;2024-03-06T09:48:34;9.15;;;8.15;;
10387;SDS011;5240;51.128;4.566;2024-03-06T09:51:04;12.13;;;8.45;;
10387;SDS011;5240;51.128;4.566;2024-03-06T09:53:32;9.93;;;8.48;;
10387;SDS011;5240;51.128;4.566;2024-03-06T09:55:59;11.80;;;8.25;;
10387;SDS011;5240;51.128;4.566;2024-03-06T09:58:28;12.27;;;9.02;;
10387;SDS011;5240;51.128;4.566;2024-03-06T10:00:55;14.73;;;10.27;;
10387;SDS011;5240;51.128;4.566;2024-03-06T10:05:59;12.18;;;7.80;;
10387;SDS011;5240;51.128;4.566;2024-03-06T10:08:28;9.77;;;8.05;;
10387;SDS011;5240;51.128;4.566;2024-03-06T10:10:59;9.85;;;7.47;;
10387;SDS011;5240;51.128;4.566;2024-03-06T10:13:26;9.85;;;7.28;;
10387;SDS011;5240;51.128;4.566;2024-03-06T10:23:43;9.18;;;6.97;;
10387;SDS011;5240;51.128;4.566;2024-03-06T10:26:14;9.02;;;7.05;;
10387;SDS011;5240;51.128;4.566;2024-03-06T10:28:44;8.77;;;7.43;;
10387;SDS011;5240;51.128;4.566;2024-03-06T10:31:12;9.50;;;8.13;;
10387;SDS011;5240;51.128;4.566;2024-03-06T10:33:39;9.00;;;7.57;;
10387;SDS011;5240;51.128;4.566;2024-03-06T10:36:11;9.65;;;7.07;;
10387;SDS011;5240;51.128;4.566;2024-03-06T10:38:38;8.52;;;6.93;;
10387;SDS011;5240;51.128;4.566;2024-03-06T10:41:09;7.57;;;6.18;;
10387;SDS011;5240;51.128;4.566;2024-03-06T10:43:38;9.13;;;6.43;;
10387;SDS011;5240;51.128;4.566;2024-03-06T10:46:07;7.07;;;6.15;;
10387;SDS011;5240;51.128;4.566;2024-03-06T10:48:41;5.95;;;5.35;;
10387;SDS011;5240;51.128;4.566;2024-03-06T10:51:10;7.57;;;5.93;;
10387;SDS011;5240;51.128;4.566;2024-03-06T10:53:39;6.68;;;5.90;;
10387;SDS011;5240;51.128;4.566;2024-03-06T10:58:53;8.82;;;5.95;;
10387;SDS011;5240;51.128;4.566;2024-03-06T11:01:32;9.20;;;5.85;;
10387;SDS011;5240;51.128;4.566;2024-03-06T11:12:04;19.75;;;11.82;;
10387;SDS011;5240;51.128;4.566;2024-03-06T11:14:35;7.85;;;5.80;;
10387;SDS011;5240;51.128;4.566;2024-03-06T11:17:03;8.77;;;6.00;;
10387;SDS011;5240;51.128;4.566;2024-03-06T11:19:32;7.55;;;5.88;;
10387;SDS011;5240;51.128;4.566;2024-03-06T11:21:59;8.40;;;6.35;;
10387;SDS011;5240;51.128;4.566;2024-03-06T11:24:34;8.40;;;6.28;;
10387;SDS011;5240;51.128;4.566;2024-03-06T11:27:01;8.73;;;6.25;;
10387;SDS011;5240;51.128;4.566;2024-03-06T11:32:13;7.75;;;5.50;;
10387;SDS011;5240;51.128;4.566;2024-03-06T11:34:41;9.32;;;5.95;;
10387;SDS011;5240;51.128;4.566;2024-03-06T11:37:08;7.35;;;5.65;;
10387;SDS011;5240;51.128;4.566;2024-03-06T11:39:36;13.40;;;5.70;;
10387;SDS011;5240;51.128;4.566;2024-03-06T11:42:04;7.75;;;5.43;;
10387;SDS011;5240;51.128;4.566;2024-03-06T11:44:33;5.63;;;5.07;;
10387;SDS011;5240;51.128;4.566;2024-03-06T11:47:01;5.78;;;4.75;;
10387;SDS011;5240;51.128;4.566;2024-03-06T11:49:31;7.25;;;5.00;;
10387;SDS011;5240;51.128;4.566;2024-03-06T11:52:00;8.63;;;5.43;;
10387;SDS011;5240;51.128;4.566;2024-03-06T11:54:27;7.72;;;5.35;;
10387;SDS011;5240;51.128;4.566;2024-03-06T11:56:55;5.97;;;4.63;;
10387;SDS011;5240;51.128;4.566;2024-03-06T11:59:23;8.20;;;5.40;;
10387;SDS011;5240;51.128;4.566;2024-03-06T12:01:51;5.75;;;4.57;;
10387;SDS011;5240;51.128;4.566;2024-03-06T12:04:19;6.88;;;5.00;;
10387;SDS011;5240;51.128;4.566;2024-03-06T12:06:48;6.25;;;4.80;;
10387;SDS011;5240;51.128;4.566;2024-03-06T12:09:15;5.40;;;4.38;;
10387;SDS011;5240;51.128;4.566;2024-03-06T12:11:43;6.57;;;4.22;;
10387;SDS011;5240;51.128;4.566;2024-03-06T12:14:13;4.75;;;3.97;;
10387;SDS011;5240;51.128;4.566;2024-03-06T12:16:42;5.82;;;4.00;;
10387;SDS011;5240;51.128;4.566;2024-03-06T12:19:10;7.68;;;4.40;;
10387;SDS011;5240;51.128;4.566;2024-03-06T12:21:38;7.90;;;5.05;;
10387;SDS011;5240;51.128;4.566;2024-03-06T12:24:08;5.53;;;4.38;;
10387;SDS011;5240;51.128;4.566;2024-03-06T12:26:35;6.53;;;4.60;;
10387;SDS011;5240;51.128;4.566;2024-03-06T12:29:03;5.82;;;4.00;;
10387;SDS011;5240;51.128;4.566;2024-03-06T12:31:31;5.28;;;4.22;;
10387;SDS011;5240;51.128;4.566;2024-03-06T12:33:59;6.05;;;4.55;;
10387;SDS011;5240;51.128;4.566;2024-03-06T12:36:28;5.60;;;3.90;;
10387;SDS011;5240;51.128;4.566;2024-03-06T12:38:56;5.22;;;4.70;;
10387;SDS011;5240;51.128;4.566;2024-03-06T12:41:25;4.75;;;4.30;;
10387;SDS011;5240;51.128;4.566;2024-03-06T12:43:53;5.85;;;4.47;;
10387;SDS011;5240;51.128;4.566;2024-03-06T12:46:21;5.88;;;4.50;;
10387;SDS011;5240;51.128;4.566;2024-03-06T12:48:48;8.80;;;4.68;;
10387;SDS011;5240;51.128;4.566;2024-03-06T12:51:15;6.50;;;4.35;;
10387;SDS011;5240;51.128;4.566;2024-03-06T12:53:43;7.68;;;3.88;;
10387;SDS011;5240;51.128;4.566;2024-03-06T12:56:10;4.78;;;4.05;;
10387;SDS011;5240;51.128;4.566;2024-03-06T12:58:39;5.13;;;3.80;;
10387;SDS011;5240;51.128;4.566;2024-03-06T13:01:06;7.57;;;4.13;;
10387;SDS011;5240;51.128;4.566;2024-03-06T13:03:33;7.22;;;4.55;;
10387;SDS011;5240;51.128;4.566;2024-03-06T13:06:00;5.32;;;4.18;;
10387;SDS011;5240;51.128;4.566;2024-03-06T13:08:28;5.60;;;4.22;;
10387;SDS011;5240;51.128;4.566;2024-03-06T13:10:55;5.55;;;4.07;;
10387;SDS011;5240;51.128;4.566;2024-03-06T13:13:22;7.25;;;3.80;;
10387;SDS011;5240;51.128;4.566;2024-03-06T13:15:51;2.70;;;2.50;;
10387;SDS011;5240;51.128;4.566;2024-03-06T13:18:19;3.53;;;2.45;;
10387;SDS011;5240;51.128;4.566;2024-03-06T13:20:46;3.25;;;2.47;;
10387;SDS011;5240;51.128;4.566;2024-03-06T13:23:14;3.38;;;2.60;;
10387;SDS011;5240;51.128;4.566;2024-03-06T13:25:41;4.05;;;3.10;;
10387;SDS011;5240;51.128;4.566;2024-03-06T13:28:09;3.25;;;2.78;;
10387;SDS011;5240;51.128;4.566;2024-03-06T13:30:36;3.97;;;2.88;;
10387;SDS011;5240;51.128;4.566;2024-03-06T13:33:05;2.92;;;2.70;;
10387;SDS011;5240;51.128;4.566;2024-03-06T13:35:33;4.68;;;3.00;;
10387;SDS011;5240;51.128;4.566;2024-03-06T13:38:00;3.80;;;2.58;;
10387;SDS011;5240;51.128;4.566;2024-03-06T13:40:28;4.05;;;2.20;;
10387;SDS011;5240;51.128;4.566;2024-03-06T13:42:55;3.80;;;2.60;;
10387;SDS011;5240;51.128;4.566;2024-03-06T13:45:23;4.30;;;3.35;;
10387;SDS011;5240;51.128;4.566;2024-03-06T13:47:50;2.75;;;2.45;;
10387;SDS011;5240;51.128;4.566;2024-03-06T13:50:19;4.65;;;1.90;;
10387;SDS011;5240;51.128;4.566;2024-03-06T13:52:48;3.58;;;2.97;;
10387;SDS011;5240;51.128;4.566;2024-03-06T13:55:16;4.82;;;2.67;;
10387;SDS011;5240;51.128;4.566;2024-03-06T13:57:44;3.83;;;2.72;;
10387;SDS011;5240;51.128;4.566;2024-03-06T14:00:12;5.63;;;2.83;;
10387;SDS011;5240;51.128;4.566;2024-03-06T14:02:42;4.82;;;2.40;;
10387;SDS011;5240;51.128;4.566;2024-03-06T14:05:10;3.42;;;2.08;;
10387;SDS011;5240;51.128;4.566;2024-03-06T14:07:40;2.92;;;2.10;;
10387;SDS011;5240;51.128;4.566;2024-03-06T14:10:08;2.17;;;1.90;;
10387;SDS011;5240;51.128;4.566;2024-03-06T14:12:35;2.72;;;2.20;;
10387;SDS011;5240;51.128;4.566;2024-03-06T14:15:03;3.63;;;2.40;;
10387;SDS011;5240;51.128;4.566;2024-03-06T14:17:34;3.67;;;2.65;;
10387;SDS011;5240;51.128;4.566;2024-03-06T14:20:01;4.63;;;2.13;;
10387;SDS011;5240;51.128;4.566;2024-03-06T14:22:28;2.10;;;1.75;;
10387;SDS011;5240;51.128;4.566;2024-03-06T14:24:57;3.20;;;1.80;;
10387;SDS011;5240;51.128;4.566;2024-03-06T14:27:24;3.38;;;2.13;;
10387;SDS011;5240;51.128;4.566;2024-03-06T14:29:54;4.47;;;2.03;;
10387;SDS011;5240;51.128;4.566;2024-03-06T14:32:21;2.63;;;1.67;;
10387;SDS011;5240;51.128;4.566;2024-03-06T14:34:50;2.88;;;1.77;;
10387;SDS011;5240;51.128;4.566;2024-03-06T14:37:17;2.13;;;1.80;;
10387;SDS011;5240;51.128;4.566;2024-03-06T14:39:45;2.78;;;1.70;;
10387;SDS011;5240;51.128;4.566;2024-03-06T14:42:13;3.20;;;1.70;;
10387;SDS011;5240;51.128;4.566;2024-03-06T14:44:41;6.03;;;1.70;;
10387;SDS011;5240;51.128;4.566;2024-03-06T14:47:11;1.98;;;1.50;;
10387;SDS011;5240;51.128;4.566;2024-03-06T14:49:39;1.88;;;1.45;;
10387;SDS011;5240;51.128;4.566;2024-03-06T14:52:06;2.97;;;1.50;;
10387;SDS011;5240;51.128;4.566;2024-03-06T14:54:34;1.98;;;1.35;;
10387;SDS011;5240;51.128;4.566;2024-03-06T14:57:02;1.95;;;1.50;;
10387;SDS011;5240;51.128;4.566;2024-03-06T14:59:32;2.92;;;1.73;;
10387;SDS011;5240;51.128;4.566;2024-03-06T15:02:00;2.90;;;1.50;;
10387;SDS011;5240;51.128;4.566;2024-03-06T15:04:28;2.28;;;1.50;;
10387;SDS011;5240;51.128;4.566;2024-03-06T15:06:56;1.70;;;1.50;;
10387;SDS011;5240;51.128;4.566;2024-03-06T15:09:25;3.90;;;2.40;;
10387;SDS011;5240;51.128;4.566;2024-03-06T15:11:53;2.92;;;2.05;;
10387;SDS011;5240;51.128;4.566;2024-03-06T15:14:21;2.75;;;1.92;;
10387;SDS011;5240;51.128;4.566;2024-03-06T15:16:51;5.45;;;2.22;;
10387;SDS011;5240;51.128;4.566;2024-03-06T15:19:18;3.22;;;2.10;;
10387;SDS011;5240;51.128;4.566;2024-03-06T15:21:45;4.25;;;1.63;;
10387;SDS011;5240;51.128;4.566;2024-03-06T15:24:12;3.10;;;1.83;;
10387;SDS011;5240;51.128;4.566;2024-03-06T15:26:40;3.65;;;1.90;;